Time;durP1;ratioP1;P1;durP2;ratioP2;P2;SDS_P1;SDS_P2;PMS_P1;PMS_P2;Temp;Humidity;BMP_temperature;BMP_pressure;BME280_temperature;BME280_humidity;BME280_pressure;Samples;Min_cycle;Max_cycle;Signal;HPM_P1;HPM_P2
2022/07/05 00:03:02;;;;;;;17.92;3.50;;;25.10;76.00;;;;;;6347247;22;20448;-78
2022/07/05 00:06:06;;;;;;;20.33;4.50;;;25.10;76.40;;;;;;6346828;22;20017;-78
2022/07/05 00:09:09;;;;;;;17.63;4.45;;;25.10;76.50;;;;;;6346651;22;20018;-77
2022/07/05 00:12:13;;;;;;;17.17;4.57;;;25.10;76.50;;;;;;6346242;22;20330;-78
2022/07/05 00:15:18;;;;;;;19.40;5.50;;;25.00;76.70;;;;;;6346361;22;20065;-77
2022/07/05 00:18:23;;;;;;;17.65;4.45;;;25.00;77.00;;;;;;6346549;22;20017;-78
2022/07/05 00:21:27;;;;;;;14.48;3.42;;;24.90;77.80;;;;;;6309107;22;20330;-78
2022/07/05 00:24:32;;;;;;;16.83;4.10;;;24.80;77.70;;;;;;6345785;22;20014;-78
2022/07/05 00:27:36;;;;;;;17.58;4.40;;;24.80;77.70;;;;;;6346510;22;20013;-78
2022/07/05 00:30:41;;;;;;;13.20;3.63;;;24.80;77.30;;;;;;6327661;22;20018;-78
2022/07/05 00:33:46;;;;;;;15.15;3.67;;;24.70;76.90;;;;;;6345929;22;20014;-78
2022/07/05 00:36:50;;;;;;;14.43;3.38;;;24.70;76.60;;;;;;6346478;22;20041;-77
2022/07/05 00:39:53;;;;;;;11.52;3.28;;;24.70;76.50;;;;;;6327560;22;20345;-77
2022/07/05 00:42:57;;;;;;;11.57;2.83;;;24.70;76.20;;;;;;6346969;22;20014;-78
2022/07/05 00:46:01;;;;;;;13.85;3.00;;;24.70;76.10;;;;;;6327216;22;20445;-77
2022/07/05 00:49:06;;;;;;;12.70;3.15;;;24.70;76.30;;;;;;6346716;22;20014;-77
2022/07/05 00:52:12;;;;;;;10.68;2.85;;;24.70;76.10;;;;;;6347018;22;20013;-78
2022/07/05 00:55:16;;;;;;;10.75;2.65;;;24.60;76.30;;;;;;6346375;22;20018;-77
2022/07/05 00:58:20;;;;;;;7.93;3.10;;;24.50;76.80;;;;;;6327830;22;20017;-77
2022/07/05 01:01:26;;;;;;;13.40;3.15;;;24.30;77.50;;;;;;6346711;22;20018;-77
2022/07/05 01:04:30;;;;;;;8.05;2.95;;;24.00;77.90;;;;;;6346525;22;20026;-77
2022/07/05 01:07:35;;;;;;;23.90;3.33;;;23.90;78.20;;;;;;6328428;22;20061;-78
2022/07/05 01:10:41;;;;;;;9.45;3.38;;;23.90;78.60;;;;;;6347064;22;20013;-77
2022/07/05 01:13:46;;;;;;;14.27;3.10;;;23.90;79.00;;;;;;6346852;22;20010;-77
2022/07/05 01:16:51;;;;;;;15.95;2.95;;;23.80;79.10;;;;;;6346273;22;20014;-78
2022/07/05 01:19:57;;;;;;;13.63;3.67;;;23.80;79.10;;;;;;6327202;22;20342;-78
2022/07/05 01:23:04;;;;;;;16.17;3.20;;;23.70;79.20;;;;;;6339027;22;20037;-77
2022/07/05 01:26:08;;;;;;;18.58;3.53;;;23.70;79.20;;;;;;6347950;22;20042;-78
2022/07/05 01:29:12;;;;;;;10.25;2.50;;;23.70;79.00;;;;;;6329041;22;20021;-77
2022/07/05 01:32:16;;;;;;;15.27;2.92;;;23.80;79.30;;;;;;6328766;22;20468;-78
2022/07/05 01:35:20;;;;;;;13.15;3.47;;;23.80;78.80;;;;;;6347309;22;20014;-78
2022/07/05 01:38:25;;;;;;;14.95;3.53;;;23.90;78.70;;;;;;6348270;22;20018;-79
2022/07/05 01:41:29;;;;;;;15.52;3.65;;;23.80;79.00;;;;;;6347874;22;20469;-78
2022/07/05 01:44:33;;;;;;;12.52;3.33;;;23.90;78.60;;;;;;6327974;22;20025;-78
2022/07/05 01:47:45;;;;;;;13.40;4.18;;;23.90;78.50;;;;;;6348324;22;20034;-78
2022/07/05 01:50:54;;;;;;;;;;;23.90;78.30;;;;;;6348644;22;20402;-78
2022/07/05 01:53:58;;;;;;;12.27;2.80;;;23.90;78.20;;;;;;6347312;22;19910;-78
2022/07/05 01:57:07;;;;;;;17.02;3.38;;;23.90;77.80;;;;;;6328722;22;20076;-78
2022/07/05 02:00:12;;;;;;;10.10;3.05;;;24.00;77.80;;;;;;6348036;22;20021;-78
2022/07/05 02:03:20;;;;;;;13.77;3.45;;;24.00;77.70;;;;;;6347765;22;20022;-78
2022/07/05 02:06:25;;;;;;;12.80;3.25;;;24.00;77.70;;;;;;6329641;22;20453;-78
2022/07/05 02:09:28;;;;;;;11.43;3.17;;;24.00;77.70;;;;;;6349071;22;20014;-77
2022/07/05 02:12:33;;;;;;;9.10;3.05;;;23.80;78.50;;;;;;6329983;22;20019;-78
2022/07/05 02:15:40;;;;;;;11.85;2.95;;;23.50;79.20;;;;;;6329761;22;20013;-78
2022/07/05 02:18:45;;;;;;;11.57;3.08;;;23.40;79.80;;;;;;6329638;22;20018;-78
2022/07/05 02:21:50;;;;;;;12.75;3.38;;;23.40;80.10;;;;;;6327114;22;20018;-78
2022/07/05 02:24:57;;;;;;;9.65;3.53;;;23.40;80.00;;;;;;6328521;22;20018;-77
2022/07/05 02:28:04;;;;;;;10.43;3.30;;;23.40;80.20;;;;;;6329090;22;20026;-78
2022/07/05 02:31:09;;;;;;;11.05;2.70;;;23.30;80.30;;;;;;6329354;22;20014;-79
2022/07/05 02:34:14;;;;;;;15.35;3.63;;;23.30;80.20;;;;;;6329012;22;20372;-80
2022/07/05 02:37:19;;;;;;;10.98;3.03;;;23.30;80.90;;;;;;6329331;22;20017;-77
2022/07/05 02:40:24;;;;;;;7.28;2.60;;;23.30;80.70;;;;;;6348247;22;20346;-78
2022/07/05 02:43:29;;;;;;;14.02;2.80;;;23.30;80.50;;;;;;6329108;22;20022;-77
2022/07/05 02:46:34;;;;;;;13.85;3.30;;;23.30;80.20;;;;;;6329017;22;20017;-78
2022/07/05 02:49:41;;;;;;;17.65;3.10;;;23.30;80.30;;;;;;6329184;22;20010;-78
2022/07/05 02:52:46;;;;;;;10.27;2.67;;;23.40;80.70;;;;;;6310938;22;20014;-78
2022/07/05 02:55:51;;;;;;;8.45;2.63;;;23.40;81.20;;;;;;6310913;22;20013;-78
2022/07/05 02:58:56;;;;;;;10.82;3.20;;;23.40;81.70;;;;;;6328605;22;20018;-79
2022/07/05 03:02:02;;;;;;;8.13;2.90;;;23.40;82.40;;;;;;6328476;22;20009;-78
2022/07/05 03:05:08;;;;;;;8.85;2.88;;;23.40;82.70;;;;;;6328162;22;20013;-78
2022/07/05 03:08:12;;;;;;;15.27;2.75;;;23.50;82.70;;;;;;6347477;22;20017;-78
2022/07/05 03:11:20;;;;;;;14.85;3.50;;;23.50;82.00;;;;;;6328645;22;20010;-78
2022/07/05 03:14:25;;;;;;;21.80;3.08;;;23.50;80.70;;;;;;6310081;22;20014;-78
2022/07/05 03:17:30;;;;;;;13.73;2.80;;;23.60;79.70;;;;;;6329004;22;20021;-78
2022/07/05 03:20:35;;;;;;;14.52;3.38;;;23.60;79.20;;;;;;6328176;22;20017;-78
2022/07/05 03:23:39;;;;;;;12.43;3.17;;;23.60;78.90;;;;;;6317883;22;20039;-78
2022/07/05 03:26:43;;;;;;;19.50;3.10;;;23.50;78.80;;;;;;6327926;22;20026;-78
2022/07/05 03:29:47;;;;;;;20.98;3.05;;;23.50;79.00;;;;;;6328570;22;20018;-77
2022/07/05 03:32:52;;;;;;;8.32;2.92;;;23.50;79.10;;;;;;6328288;22;20334;-77
2022/07/05 03:35:57;;;;;;;11.23;3.05;;;23.20;81.80;;;;;;6328500;22;20445;-77
2022/07/05 03:39:03;;;;;;;11.00;2.65;;;22.90;83.00;;;;;;6328509;22;20013;-77
2022/07/05 03:42:07;;;;;;;11.75;3.15;;;22.40;85.60;;;;;;6328246;22;20331;-77
2022/07/05 03:45:11;;;;;;;13.50;3.17;;;22.10;87.40;;;;;;6327575;22;20018;-77
2022/07/05 03:48:16;;;;;;;12.75;3.35;;;21.90;88.90;;;;;;6327743;22;20018;-77
2022/07/05 03:51:20;;;;;;;35.10;5.28;;;21.70;90.00;;;;;;6347125;22;20021;-77
2022/07/05 03:54:24;;;;;;;10.38;2.90;;;21.70;90.50;;;;;;6326642;22;20033;-77
2022/07/05 03:57:31;;;;;;;15.18;3.58;;;21.70;90.50;;;;;;6346574;22;20326;-77
2022/07/05 04:00:36;;;;;;;8.95;3.15;;;21.50;91.10;;;;;;6327269;22;20017;-77
2022/07/05 04:03:44;;;;;;;12.05;3.25;;;21.40;91.90;;;;;;6327105;22;20013;-77
2022/07/05 04:06:51;;;;;;;10.98;3.60;;;21.30;92.00;;;;;;6327347;22;20037;-78
2022/07/05 04:09:56;;;;;;;17.77;3.20;;;21.40;91.90;;;;;;6327801;22;20009;-77
2022/07/05 04:13:01;;;;;;;13.80;3.30;;;21.60;91.90;;;;;;6327703;22;20018;-77
2022/07/05 04:16:07;;;;;;;19.48;3.50;;;21.70;91.70;;;;;;6309520;22;20057;-77
2022/07/05 04:19:11;;;;;;;11.82;3.55;;;21.90;90.90;;;;;;6309609;22;20014;-77
2022/07/05 04:22:15;;;;;;;13.35;3.78;;;22.10;90.50;;;;;;6343914;22;20452;-77
2022/07/05 04:25:19;;;;;;;14.82;3.15;;;22.30;90.50;;;;;;6309496;22;20013;-78
2022/07/05 04:28:31;;;;;;;8.10;2.90;;;22.60;90.20;;;;;;6327502;22;20014;-77
2022/07/05 04:31:38;;;;;;;10.43;3.53;;;22.90;90.00;;;;;;6325216;22;20365;-77
2022/07/05 04:34:42;;;;;;;10.82;3.08;;;23.10;90.00;;;;;;6326791;22;20036;-77
2022/07/05 04:37:46;;;;;;;12.63;3.80;;;23.20;90.10;;;;;;6327810;22;20468;-77
2022/07/05 04:40:51;;;;;;;10.27;2.92;;;23.30;90.00;;;;;;6327172;22;20346;-77
2022/07/05 04:43:56;;;;;;;11.85;3.67;;;23.80;89.30;;;;;;6327191;22;20017;-77
2022/07/05 04:47:01;;;;;;;11.05;3.25;;;24.50;88.10;;;;;;6327281;22;20018;-77
2022/07/05 04:50:05;;;;;;;9.40;3.38;;;25.20;86.20;;;;;;6346790;22;20014;-78
2022/07/05 04:53:10;;;;;;;12.30;3.25;;;25.90;84.50;;;;;;6327519;22;20021;-77
2022/07/05 04:56:15;;;;;;;9.90;3.40;;;26.50;83.40;;;;;;6346913;22;20013;-78
2022/07/05 04:59:19;;;;;;;9.50;3.38;;;27.10;81.20;;;;;;6346166;22;20340;-77
2022/07/05 05:02:23;;;;;;;14.60;3.47;;;27.70;80.60;;;;;;6346340;22;20022;-77
2022/07/05 05:05:27;;;;;;;15.95;3.70;;;28.10;80.00;;;;;;6345960;22;20025;-77
2022/07/05 05:08:31;;;;;;;13.20;3.25;;;28.70;79.00;;;;;;6348634;22;20017;-77
2022/07/05 05:11:35;;;;;;;12.90;4.00;;;29.50;77.30;;;;;;6348256;22;20018;-77
2022/07/05 05:14:39;;;;;;;12.38;3.20;;;29.90;76.30;;;;;;6346894;22;20014;-78
2022/07/05 05:17:43;;;;;;;15.25;3.60;;;30.60;75.50;;;;;;6347992;22;20456;-78
2022/07/05 05:20:47;;;;;;;17.50;2.97;;;31.30;74.70;;;;;;6348027;22;20026;-77
2022/07/05 05:23:51;;;;;;;28.23;3.90;;;32.00;73.40;;;;;;6336982;22;20330;-78
2022/07/05 05:26:56;;;;;;;15.25;3.35;;;32.20;72.90;;;;;;6347374;22;20018;-78
2022/07/05 05:30:00;;;;;;;17.40;3.10;;;32.30;72.80;;;;;;6347559;22;20009;-78
2022/07/05 05:33:03;;;;;;;15.25;2.92;;;32.60;72.30;;;;;;6328258;22;20018;-78
2022/07/05 05:36:07;;;;;;;22.30;3.22;;;32.90;72.60;;;;;;6347938;22;20460;-78
2022/07/05 05:39:11;;;;;;;9.07;2.78;;;33.30;71.80;;;;;;6347437;22;20022;-78
2022/07/05 05:42:15;;;;;;;11.80;3.28;;;33.50;72.40;;;;;;6346860;22;20010;-79
2022/07/05 05:45:20;;;;;;;7.80;2.83;;;33.60;73.20;;;;;;6347110;22;20014;-78
2022/07/05 05:48:24;;;;;;;11.15;2.50;;;34.00;73.10;;;;;;6347310;22;20380;-78
2022/07/05 05:51:28;;;;;;;9.75;2.63;;;34.10;73.70;;;;;;6347285;22;20034;-78
2022/07/05 05:54:32;;;;;;;16.85;3.00;;;34.30;74.10;;;;;;6347177;22;20014;-79
2022/07/05 05:57:36;;;;;;;17.88;3.60;;;34.70;73.80;;;;;;6347703;22;20021;-79
2022/07/05 06:00:41;;;;;;;14.07;2.90;;;34.80;73.40;;;;;;6347812;22;20022;-79
2022/07/05 06:03:45;;;;;;;12.85;3.10;;;34.40;72.10;;;;;;6347139;22;20018;-79
2022/07/05 06:06:49;;;;;;;8.25;2.50;;;34.30;72.90;;;;;;6347026;22;20022;-78
2022/07/05 06:09:53;;;;;;;14.85;3.45;;;34.50;73.30;;;;;;6347363;22;20025;-79
2022/07/05 06:13:00;;;;;;;12.57;3.03;;;34.90;73.30;;;;;;6349126;22;20469;-78
2022/07/05 06:16:06;;;;;;;13.63;3.42;;;35.30;73.10;;;;;;6349014;22;20018;-78
2022/07/05 06:19:10;;;;;;;16.63;3.53;;;35.50;72.30;;;;;;6349773;22;20022;-78
2022/07/05 06:22:14;;;;;;;9.32;2.45;;;35.70;71.90;;;;;;6345749;22;20037;-78
2022/07/05 06:25:18;;;;;;;9.68;2.20;;;35.90;71.80;;;;;;6329102;22;20017;-79
2022/07/05 06:28:22;;;;;;;11.27;2.20;;;36.20;71.60;;;;;;6348487;22;20018;-78
2022/07/05 06:31:26;;;;;;;7.88;2.05;;;36.60;71.40;;;;;;6349111;22;20014;-79
2022/07/05 06:34:30;;;;;;;13.20;2.80;;;36.50;71.40;;;;;;6348933;22;20021;-80
2022/07/05 06:37:46;;;;;;;7.47;2.10;;;36.60;71.40;;;;;;6348225;22;20368;-79
2022/07/05 06:40:53;;;;;;;11.07;2.10;;;36.80;70.70;;;;;;6348603;22;20017;-79
2022/07/05 06:43:58;;;;;;;10.98;1.80;;;37.10;70.30;;;;;;6348124;22;20026;-79
2022/07/05 06:47:01;;;;;;;8.40;2.20;;;36.80;69.70;;;;;;6348086;22;20018;-79
2022/07/05 06:50:06;;;;;;;10.63;1.90;;;37.00;69.90;;;;;;6348508;22;20338;-80
2022/07/05 06:53:14;;;;;;;7.85;1.92;;;37.20;69.70;;;;;;6328005;22;20370;-80
2022/07/05 06:56:18;;;;;;;14.52;2.35;;;37.00;70.80;;;;;;6348635;22;20014;-79
2022/07/05 06:59:22;;;;;;;7.13;2.35;;;37.40;70.00;;;;;;6346547;22;20014;-79
2022/07/05 07:02:26;;;;;;;11.63;2.38;;;37.70;69.70;;;;;;6347876;22;20025;-80
2022/07/05 07:05:32;;;;;;;8.57;2.42;;;37.80;69.90;;;;;;6347466;22;20021;-79
2022/07/05 07:11:58;;;;;;;7.72;2.30;;;37.90;70.90;;;;;;6347605;22;20018;-80
2022/07/05 07:15:11;;;;;;;12.45;2.08;;;38.20;70.50;;;;;;6346557;22;20476;-80
2022/07/05 07:18:15;;;;;;;7.63;2.28;;;38.30;69.40;;;;;;6347673;22;20070;-80
2022/07/05 07:21:19;;;;;;;10.10;2.15;;;38.80;68.10;;;;;;6347083;22;20017;-78
2022/07/05 07:24:23;;;;;;;8.00;2.20;;;38.60;68.10;;;;;;6346127;22;20022;-80
2022/07/05 07:27:27;;;;;;;15.05;2.25;;;39.00;67.40;;;;;;6346721;22;20014;-79
2022/07/05 07:30:32;;;;;;;10.98;2.20;;;39.10;66.70;;;;;;6346289;22;20014;-81
2022/07/05 07:33:35;;;;;;;9.63;1.85;;;39.50;66.10;;;;;;6329610;22;20013;-81
2022/07/05 07:36:39;;;;;;;9.18;2.10;;;40.00;65.60;;;;;;6331661;22;20355;-81
2022/07/05 07:39:44;;;;;;;15.80;2.10;;;40.20;64.80;;;;;;6353212;22;20017;-84
2022/07/05 07:42:49;;;;;;;9.30;2.08;;;40.80;64.00;;;;;;6354362;22;20017;-82
2022/07/05 07:45:52;;;;;;;10.65;1.88;;;41.40;63.40;;;;;;6353312;22;20009;-83
2022/07/05 07:48:57;;;;;;;5.72;1.73;;;41.80;62.40;;;;;;6333366;22;20017;-83
2022/07/05 07:52:01;;;;;;;10.93;1.83;;;42.20;60.80;;;;;;6350684;22;20013;-82
2022/07/05 07:55:05;;;;;;;8.93;2.00;;;41.70;60.30;;;;;;6348324;22;20009;-83
2022/07/05 07:58:09;;;;;;;11.00;1.98;;;41.80;60.90;;;;;;6351580;22;20333;-81
2022/07/05 08:01:14;;;;;;;14.40;3.05;;;41.90;60.80;;;;;;6350669;22;20026;-83
2022/07/05 08:04:18;;;;;;;9.57;1.80;;;42.10;62.40;;;;;;6314890;22;20029;-81
2022/07/05 08:07:24;;;;;;;7.65;1.83;;;42.40;62.40;;;;;;6347742;22;20018;-82
2022/07/05 08:10:28;;;;;;;9.40;2.20;;;42.50;61.90;;;;;;6348305;22;20010;-81
2022/07/05 08:13:32;;;;;;;6.97;2.00;;;43.20;60.90;;;;;;6327268;22;20018;-81
2022/07/05 08:16:35;;;;;;;10.63;2.00;;;43.90;58.90;;;;;;6348078;22;20013;-81
2022/07/05 08:23:02;;;;;;;8.88;2.38;;;44.60;59.30;;;;;;6338251;22;20017;-81
2022/07/05 08:26:06;;;;;;;8.18;2.33;;;45.00;57.40;;;;;;6347527;22;20013;-82
2022/07/05 08:29:12;;;;;;;12.25;2.47;;;45.60;57.90;;;;;;6346377;22;20017;-79
2022/07/05 08:32:16;;;;;;;11.15;2.20;;;45.20;57.50;;;;;;6347878;22;20019;-80
2022/07/05 08:35:20;;;;;;;13.55;2.38;;;43.40;58.90;;;;;;6327614;22;20014;-80
2022/07/05 08:38:24;;;;;;;8.80;2.08;;;43.30;58.70;;;;;;6346886;22;20030;-79
2022/07/05 08:41:29;;;;;;;6.72;1.85;;;43.60;57.90;;;;;;6346791;22;20017;-80
2022/07/05 08:44:35;;;;;;;9.23;2.65;;;44.30;56.90;;;;;;6346871;22;20018;-79
2022/07/05 08:47:39;;;;;;;10.90;2.20;;;45.10;54.00;;;;;;6346845;22;20101;-80
2022/07/05 08:50:45;;;;;;;9.95;2.20;;;45.70;53.90;;;;;;6348012;22;20527;-81
2022/07/05 08:53:55;;;;;;;9.93;2.30;;;46.30;54.30;;;;;;6347618;22;20017;-80
2022/07/05 08:56:59;;;;;;;13.00;2.35;;;46.60;54.40;;;;;;6347236;22;20302;-80
2022/07/05 09:00:03;;;;;;;13.90;2.13;;;47.40;54.10;;;;;;6346774;22;20072;-81
2022/07/05 09:03:07;;;;;;;13.20;2.65;;;47.80;53.90;;;;;;6346493;22;20345;-81
2022/07/05 09:06:13;;;;;;;18.15;2.20;;;48.00;53.40;;;;;;6349541;22;20021;-79
2022/07/05 09:09:19;;;;;;;10.85;1.92;;;48.10;52.60;;;;;;6347070;22;20022;-80
2022/07/05 09:12:22;;;;;;;12.00;2.85;;;46.20;52.80;;;;;;6346900;22;20021;-80
2022/07/05 09:15:26;;;;;;;12.10;2.92;;;46.70;52.70;;;;;;6339449;22;20053;-81
2022/07/05 09:18:50;;;;;;;11.32;2.00;;;47.80;52.40;;;;;;6346359;22;20172;-81
2022/07/05 09:22:03;;;;;;;10.18;2.33;;;48.70;52.20;;;;;;6325282;22;20010;-80
2022/07/05 09:25:19;;;;;;;9.85;2.10;;;49.20;51.70;;;;;;6346844;22;20017;-79
2022/07/05 09:28:25;;;;;;;12.40;2.55;;;50.30;51.40;;;;;;6317356;22;20022;-79
2022/07/05 09:31:34;;;;;;;12.73;2.50;;;50.70;51.70;;;;;;6345554;22;20330;-80
2022/07/05 09:34:38;;;;;;;9.68;2.00;;;50.60;50.70;;;;;;6345303;22;20021;-80
2022/07/05 09:37:44;;;;;;;9.93;2.08;;;50.90;51.00;;;;;;6346454;22;20022;-79
2022/07/05 09:40:49;;;;;;;12.02;2.85;;;51.20;51.20;;;;;;6346405;22;20448;-79
2022/07/05 09:43:53;;;;;;;21.30;2.60;;;51.60;50.40;;;;;;6344478;22;20017;-81
2022/07/05 09:47:12;;;;;;;11.43;2.70;;;51.90;50.40;;;;;;6328493;22;20480;-81
2022/07/05 09:50:33;;;;;;;12.50;2.47;;;52.10;50.70;;;;;;6348214;22;20022;-79
2022/07/05 09:53:48;;;;;;;15.05;2.65;;;50.50;50.80;;;;;;6347822;22;20527;-79
2022/07/05 09:56:52;;;;;;;10.82;2.67;;;49.50;52.70;;;;;;6348595;22;20018;-80
2022/07/05 10:00:02;;;;;;;10.50;2.22;;;50.20;52.30;;;;;;6311314;22;20334;-82
2022/07/05 10:03:10;;;;;;;16.15;2.30;;;51.20;50.90;;;;;;6347682;22;20356;-78
2022/07/05 10:06:13;;;;;;;9.88;2.50;;;52.20;50.50;;;;;;6348343;22;20452;-78
2022/07/05 10:09:18;;;;;;;14.88;2.60;;;51.70;51.30;;;;;;6329305;22;20022;-79
2022/07/05 10:12:23;;;;;;;14.73;3.47;;;47.00;54.20;;;;;;6329493;22;20021;-80
2022/07/05 10:15:32;;;;;;;16.42;2.70;;;48.00;54.10;;;;;;6347748;22;20014;-80
2022/07/05 10:18:38;;;;;;;17.80;3.17;;;48.30;54.30;;;;;;6347541;22;20017;-80
2022/07/05 10:21:43;;;;;;;15.05;2.90;;;49.50;54.10;;;;;;6345603;22;20337;-76
2022/07/05 10:24:48;;;;;;;14.25;2.53;;;50.80;53.10;;;;;;6346513;22;20014;-78
2022/07/05 10:27:53;;;;;;;17.98;3.00;;;50.80;52.80;;;;;;6347350;22;20017;-79
2022/07/05 10:30:59;;;;;;;8.50;2.20;;;50.00;51.30;;;;;;6345661;22;20014;-78
2022/07/05 10:34:07;;;;;;;13.48;2.30;;;48.90;52.50;;;;;;6346481;22;20026;-80
2022/07/05 10:37:11;;;;;;;10.85;2.15;;;47.20;54.40;;;;;;6347807;22;20018;-78
2022/07/05 10:40:18;;;;;;;11.23;2.35;;;47.00;55.60;;;;;;6347235;22;20018;-79
2022/07/05 10:43:23;;;;;;;11.88;2.80;;;48.20;55.10;;;;;;6328646;22;20018;-81
2022/07/05 10:46:38;;;;;;;23.80;3.25;;;43.40;56.70;;;;;;6346849;22;20346;-80
2022/07/05 10:49:42;;;;;;;13.13;3.03;;;45.80;56.30;;;;;;6327045;22;20018;-81
2022/07/05 10:53:02;;;;;;;10.90;2.50;;;44.50;54.60;;;;;;6328442;22;20036;-78
2022/07/05 10:56:06;;;;;;;9.57;2.40;;;42.70;58.50;;;;;;6328804;22;20013;-76
2022/07/05 10:59:12;;;;;;;13.98;2.53;;;44.50;57.40;;;;;;6348420;22;20453;-82
2022/07/05 11:02:16;;;;;;;10.63;1.92;;;46.60;55.90;;;;;;6346900;22;20014;-82
2022/07/05 11:05:24;;;;;;;12.70;2.65;;;48.00;54.50;;;;;;6346033;22;20017;-82
2022/07/05 11:08:35;;;;;;;6.32;1.88;;;47.90;53.60;;;;;;6345731;22;20021;-81
2022/07/05 11:11:52;;;;;;;9.95;3.03;;;47.50;53.30;;;;;;6346167;22;20017;-78
2022/07/05 11:15:05;;;;;;;13.98;2.83;;;44.70;54.20;;;;;;6346049;22;20022;-78
2022/07/05 11:18:22;;;;;;;16.98;3.00;;;44.40;55.30;;;;;;6346034;22;20022;-79
2022/07/05 11:21:26;;;;;;;16.92;3.15;;;45.40;55.10;;;;;;6346481;22;20437;-79
2022/07/05 11:24:33;;;;;;;15.70;2.78;;;45.30;54.50;;;;;;6316506;22;20026;-80
2022/07/05 11:28:07;;;;;;;9.73;2.47;;;45.50;55.10;;;;;;6315153;22;20015;-79
2022/07/05 11:31:12;;;;;;;23.25;2.85;;;44.80;55.50;;;;;;6315039;22;20030;-79
2022/07/05 11:34:18;;;;;;;18.90;2.85;;;43.90;56.70;;;;;;6296965;22;20026;-80
2022/07/05 11:37:24;;;;;;;17.42;2.88;;;44.00;56.30;;;;;;6314384;22;20018;-80
2022/07/05 11:40:31;;;;;;;11.85;2.72;;;44.50;56.20;;;;;;6315709;22;20453;-80
2022/07/05 11:43:35;;;;;;;16.13;3.03;;;43.30;56.90;;;;;;6313956;22;20022;-80
2022/07/05 11:46:41;;;;;;;12.23;2.50;;;43.80;56.70;;;;;;6315683;22;20014;-79
2022/07/05 11:49:58;;;;;;;15.60;2.55;;;41.80;57.30;;;;;;6296911;22;20358;-78
2022/07/05 11:53:03;;;;;;;14.65;3.28;;;38.00;61.20;;;;;;6295142;22;20453;-78
2022/07/05 11:56:09;;;;;;;8.90;2.20;;;38.30;61.10;;;;;;6317594;22;20334;-80
2022/07/05 11:59:23;;;;;;;9.27;2.50;;;39.70;60.10;;;;;;6316214;22;20018;-78
2022/07/05 12:02:28;;;;;;;13.48;2.72;;;41.30;58.80;;;;;;6296327;22;20066;-76
2022/07/05 12:05:32;;;;;;;10.10;2.55;;;39.60;59.40;;;;;;6315408;22;20018;-79
2022/07/05 12:08:36;;;;;;;12.65;3.03;;;40.70;58.80;;;;;;6315571;22;20034;-78
2022/07/05 12:15:03;;;;;;;8.82;2.20;;;42.60;57.30;;;;;;6315488;22;20018;-78
2022/07/05 12:18:08;;;;;;;13.95;2.80;;;42.20;57.10;;;;;;6315376;22;20030;-79
2022/07/05 12:21:17;;;;;;;15.93;2.47;;;39.90;59.20;;;;;;6314805;22;20022;-81
2022/07/05 12:24:22;;;;;;;7.30;2.17;;;40.50;59.60;;;;;;6278261;22;20026;-81
2022/07/05 12:27:27;;;;;;;10.25;2.85;;;40.40;59.70;;;;;;6316213;22;20018;-81
2022/07/05 12:30:32;;;;;;;16.38;2.90;;;41.40;57.90;;;;;;6296618;22;20018;-82
2022/07/05 12:33:36;;;;;;;14.82;2.53;;;42.30;57.60;;;;;;6315134;22;20830;-82
2022/07/05 12:36:42;;;;;;;8.80;2.58;;;42.80;56.90;;;;;;6316984;22;20013;-80
2022/07/05 12:39:47;;;;;;;10.10;2.60;;;42.80;58.80;;;;;;6315685;22;20022;-78
2022/07/05 12:43:12;;;;;;;9.15;2.50;;;41.40;58.90;;;;;;6316015;22;20038;-82
2022/07/05 12:46:16;;;;;;;6.85;2.30;;;41.30;59.90;;;;;;6315564;22;20010;-81
2022/07/05 12:49:21;;;;;;;13.05;2.80;;;39.90;61.90;;;;;;6294392;22;20070;-79
2022/07/05 12:52:25;;;;;;;8.95;2.47;;;38.60;61.90;;;;;;6314343;22;20366;-78
2022/07/05 12:59:09;;;;;;;16.02;3.33;;;37.40;63.70;;;;;;6312656;22;20470;-80
2022/07/05 13:02:13;;;;;;;12.18;2.42;;;37.00;65.00;;;;;;6294512;22;20042;-78
2022/07/05 13:05:23;;;;;;;10.95;3.10;;;37.80;65.50;;;;;;6294343;22;20010;-77
2022/07/05 13:08:28;;;;;;;8.55;2.70;;;36.70;65.50;;;;;;6313891;22;20038;-78
2022/07/05 13:11:32;;;;;;;10.07;2.50;;;35.50;67.00;;;;;;6312413;22;20018;-78
2022/07/05 13:14:41;;;;;;;11.55;2.90;;;36.70;66.90;;;;;;6313627;22;20417;-78
2022/07/05 13:17:45;;;;;;;11.80;3.25;;;37.60;65.30;;;;;;6313937;22;20473;-79
2022/07/05 13:20:50;;;;;;;12.40;3.05;;;37.60;65.40;;;;;;6316505;22;20010;-82
2022/07/05 13:23:54;;;;;;;11.23;2.72;;;38.40;64.20;;;;;;6298120;22;20030;-79
2022/07/05 13:26:58;;;;;;;15.18;3.47;;;38.70;64.30;;;;;;6315427;22;20468;-77
2022/07/05 13:30:03;;;;;;;7.28;2.60;;;37.20;65.30;;;;;;6315925;22;20018;-79
2022/07/05 13:33:07;;;;;;;7.57;2.75;;;36.70;66.80;;;;;;6315661;22;20464;-79
2022/07/05 13:36:12;;;;;;;13.70;2.47;;;37.60;66.40;;;;;;6297214;22;20022;-79
2022/07/05 13:39:15;;;;;;;11.23;2.30;;;38.40;64.30;;;;;;6296355;22;20026;-80
2022/07/05 13:42:19;;;;;;;15.50;2.28;;;38.50;63.30;;;;;;6315515;22;20011;-79
2022/07/05 13:45:23;;;;;;;9.65;2.40;;;38.80;63.00;;;;;;6317023;22;20018;-76
2022/07/05 13:48:27;;;;;;;12.23;2.88;;;38.70;63.30;;;;;;6315775;22;20018;-78
2022/07/05 13:51:31;;;;;;;10.25;2.63;;;36.80;65.20;;;;;;6295093;22;20021;-80
2022/07/05 13:54:38;;;;;;;8.23;2.47;;;37.00;66.90;;;;;;6314853;22;20018;-78
2022/07/05 13:57:43;;;;;;;8.30;2.25;;;37.70;65.80;;;;;;6297374;22;20019;-80
2022/07/05 14:00:48;;;;;;;5.55;2.08;;;38.40;64.60;;;;;;6296444;22;20335;-80
2022/07/05 14:03:53;;;;;;;9.00;2.33;;;38.70;64.30;;;;;;6295954;22;20015;-81
2022/07/05 14:06:59;;;;;;;17.48;2.80;;;38.50;63.80;;;;;;6315851;22;20018;-78
2022/07/05 14:10:04;;;;;;;7.07;2.20;;;37.80;64.50;;;;;;6295751;22;20026;-80
2022/07/05 14:13:08;;;;;;;11.55;2.88;;;38.40;63.80;;;;;;6297225;22;20023;-78
2022/07/05 14:16:13;;;;;;;9.57;2.38;;;38.20;63.80;;;;;;6316683;22;20018;-79
2022/07/05 14:19:17;;;;;;;10.13;2.28;;;38.70;62.80;;;;;;6315619;22;20462;-77
2022/07/05 14:22:22;;;;;;;5.10;2.10;;;38.50;63.00;;;;;;6323649;22;20026;-79
2022/07/05 14:25:26;;;;;;;10.05;2.20;;;37.80;63.30;;;;;;6326975;22;20017;-80
2022/07/05 14:28:30;;;;;;;11.40;2.20;;;38.00;62.90;;;;;;6327223;22;20037;-78
2022/07/05 14:31:35;;;;;;;7.63;2.05;;;38.20;62.00;;;;;;6328092;22;20026;-78
2022/07/05 14:34:39;;;;;;;11.68;2.40;;;38.50;61.90;;;;;;6346922;22;20027;-85
2022/07/05 14:37:44;;;;;;;12.73;2.83;;;38.60;62.00;;;;;;6348324;22;20018;-80
2022/07/05 14:40:48;;;;;;;9.90;2.45;;;38.40;61.90;;;;;;6348298;22;20021;-80
2022/07/05 14:43:53;;;;;;;12.77;2.35;;;38.10;62.10;;;;;;6345997;22;20014;-78
2022/07/05 14:46:57;;;;;;;8.50;2.30;;;37.50;62.30;;;;;;6330934;22;20017;-80
2022/07/05 14:50:02;;;;;;;6.88;2.72;;;37.50;63.10;;;;;;6348402;22;20022;-81
2022/07/05 14:53:07;;;;;;;6.40;2.15;;;37.70;63.10;;;;;;6346948;22;20488;-79
2022/07/05 14:56:13;;;;;;;10.13;2.50;;;37.70;62.70;;;;;;6348143;22;20457;-80
2022/07/05 14:59:17;;;;;;;11.07;2.38;;;37.60;62.60;;;;;;6345536;22;20021;-77
2022/07/05 15:02:21;;;;;;;10.27;2.80;;;37.40;63.70;;;;;;6346801;22;20018;-79
2022/07/05 15:05:26;;;;;;;12.80;2.88;;;37.30;63.60;;;;;;6326068;22;20038;-79
2022/07/05 15:08:30;;;;;;;10.40;2.83;;;37.20;64.80;;;;;;6345755;22;20022;-79
2022/07/05 15:11:34;;;;;;;10.38;3.38;;;37.00;64.60;;;;;;6348074;22;20334;-78
2022/07/05 15:14:38;;;;;;;6.22;2.03;;;37.20;64.10;;;;;;6346237;22;20366;-80
2022/07/05 15:17:43;;;;;;;9.70;3.03;;;37.20;63.60;;;;;;6347797;22;20452;-79
2022/07/05 15:20:47;;;;;;;18.27;3.15;;;37.00;63.90;;;;;;6346279;22;20024;-76
2022/07/05 15:23:53;;;;;;;6.68;2.53;;;36.00;65.20;;;;;;6336977;22;20022;-77
2022/07/05 15:26:57;;;;;;;14.00;3.00;;;35.40;65.20;;;;;;6348234;22;20018;-79
2022/07/05 15:30:01;;;;;;;11.32;3.08;;;35.30;64.60;;;;;;6347122;22;20018;-79
2022/07/05 15:33:07;;;;;;;12.75;3.10;;;35.60;64.50;;;;;;6328106;22;20368;-77
2022/07/05 15:36:10;;;;;;;10.10;3.03;;;35.80;63.40;;;;;;6347814;22;20021;-78
2022/07/05 15:39:15;;;;;;;13.55;2.67;;;35.80;63.00;;;;;;6346884;22;20022;-80
2022/07/05 15:42:20;;;;;;;12.20;3.55;;;35.50;64.30;;;;;;6346730;22;20186;-79
2022/07/05 15:45:24;;;;;;;8.05;2.53;;;35.50;64.30;;;;;;6346171;22;20248;-79
2022/07/05 15:48:28;;;;;;;9.63;2.80;;;35.60;64.40;;;;;;6346897;22;20014;-78
2022/07/05 15:51:31;;;;;;;9.43;2.65;;;35.10;65.00;;;;;;6346826;22;20009;-78
2022/07/05 15:54:36;;;;;;;17.05;3.28;;;35.20;65.90;;;;;;6347458;22;20010;-78
2022/07/05 15:57:40;;;;;;;43.10;4.65;;;35.20;65.50;;;;;;6347062;22;20021;-77
2022/07/05 16:00:44;;;;;;;11.70;2.60;;;34.70;66.60;;;;;;6346927;22;20025;-78
2022/07/05 16:03:48;;;;;;;8.27;2.55;;;34.70;66.80;;;;;;6346096;22;20093;-78
2022/07/05 16:06:52;;;;;;;8.25;2.78;;;34.40;67.40;;;;;;6346545;22;20014;-78
2022/07/05 16:09:56;;;;;;;12.77;3.22;;;34.40;67.60;;;;;;6346591;22;20018;-77
2022/07/05 16:13:00;;;;;;;9.95;2.90;;;34.50;67.50;;;;;;6327262;22;20786;-78